sensor_id;sensor_type;location;lat;lon;timestamp;P1;durP1;ratioP1;P2;durP2;ratioP2
4428;SDS011;2227;47.810;8.810;2023-03-01T04:47:11;663.08;;;524.42;;
4428;SDS011;2227;47.810;8.810;2023-03-01T04:49:38;662.40;;;519.38;;
4428;SDS011;2227;47.810;8.810;2023-03-01T04:52:05;664.25;;;522.25;;
4428;SDS011;2227;47.810;8.810;2023-03-01T04:54:32;663.50;;;524.72;;
4428;SDS011;2227;47.810;8.810;2023-03-01T04:57:00;666.30;;;523.05;;
4428;SDS011;2227;47.810;8.810;2023-03-01T04:59:28;666.55;;;517.00;;
4428;SDS011;2227;47.810;8.810;2023-03-01T05:01:55;663.15;;;513.95;;
4428;SDS011;2227;47.810;8.810;2023-03-01T05:04:23;663.67;;;510.10;;
4428;SDS011;2227;47.810;8.810;2023-03-01T05:06:51;661.10;;;517.63;;
4428;SDS011;2227;47.810;8.810;2023-03-01T05:09:19;660.70;;;506.48;;
4428;SDS011;2227;47.810;8.810;2023-03-01T05:11:46;662.42;;;511.02;;
4428;SDS011;2227;47.810;8.810;2023-03-01T05:14:13;663.67;;;524.45;;
4428;SDS011;2227;47.810;8.810;2023-03-01T05:16:39;664.97;;;516.73;;
4428;SDS011;2227;47.810;8.810;2023-03-01T05:19:06;656.97;;;515.90;;
4428;SDS011;2227;47.810;8.810;2023-03-01T05:21:42;658.00;;;519.55;;
4428;SDS011;2227;47.810;8.810;2023-03-01T05:24:28;663.13;;;514.90;;
4428;SDS011;2227;47.810;8.810;2023-03-01T05:26:56;663.97;;;515.78;;
4428;SDS011;2227;47.810;8.810;2023-03-01T05:29:23;661.30;;;513.63;;
4428;SDS011;2227;47.810;8.810;2023-03-01T05:31:55;663.83;;;521.67;;
4428;SDS011;2227;47.810;8.810;2023-03-01T05:34:34;661.25;;;516.25;;
4428;SDS011;2227;47.810;8.810;2023-03-01T05:37:01;657.73;;;511.93;;
4428;SDS011;2227;47.810;8.810;2023-03-01T05:39:29;660.95;;;523.97;;
4428;SDS011;2227;47.810;8.810;2023-03-01T05:41:57;663.90;;;519.53;;
4428;SDS011;2227;47.810;8.810;2023-03-01T05:44:25;666.92;;;515.83;;
4428;SDS011;2227;47.810;8.810;2023-03-01T05:46:53;662.97;;;511.17;;
4428;SDS011;2227;47.810;8.810;2023-03-01T05:49:20;664.40;;;494.77;;
4428;SDS011;2227;47.810;8.810;2023-03-01T05:51:50;661.53;;;509.48;;
4428;SDS011;2227;47.810;8.810;2023-03-01T05:54:19;662.50;;;504.95;;
4428;SDS011;2227;47.810;8.810;2023-03-01T05:56:47;664.28;;;504.05;;
4428;SDS011;2227;47.810;8.810;2023-03-01T05:59:14;663.47;;;501.58;;
4428;SDS011;2227;47.810;8.810;2023-03-01T06:01:42;664.40;;;508.52;;
4428;SDS011;2227;47.810;8.810;2023-03-01T06:04:09;665.95;;;514.67;;
4428;SDS011;2227;47.810;8.810;2023-03-01T06:06:36;659.72;;;497.42;;
4428;SDS011;2227;47.810;8.810;2023-03-01T06:09:04;657.50;;;511.20;;
4428;SDS011;2227;47.810;8.810;2023-03-01T06:11:33;657.92;;;509.50;;
4428;SDS011;2227;47.810;8.810;2023-03-01T06:14:01;655.58;;;512.33;;
4428;SDS011;2227;47.810;8.810;2023-03-01T06:16:27;662.20;;;513.33;;
4428;SDS011;2227;47.810;8.810;2023-03-01T06:18:55;665.53;;;516.30;;
4428;SDS011;2227;47.810;8.810;2023-03-01T06:21:21;665.93;;;513.97;;
4428;SDS011;2227;47.810;8.810;2023-03-01T06:23:48;671.85;;;518.42;;
4428;SDS011;2227;47.810;8.810;2023-03-01T06:26:15;668.22;;;513.45;;
4428;SDS011;2227;47.810;8.810;2023-03-01T06:28:42;668.05;;;518.10;;
4428;SDS011;2227;47.810;8.810;2023-03-01T06:31:12;664.67;;;518.40;;
4428;SDS011;2227;47.810;8.810;2023-03-01T06:33:39;664.13;;;509.27;;
4428;SDS011;2227;47.810;8.810;2023-03-01T06:36:05;664.15;;;501.55;;
4428;SDS011;2227;47.810;8.810;2023-03-01T06:38:33;664.40;;;494.67;;
4428;SDS011;2227;47.810;8.810;2023-03-01T06:40:59;668.33;;;497.38;;
4428;SDS011;2227;47.810;8.810;2023-03-01T06:43:27;664.63;;;493.40;;
4428;SDS011;2227;47.810;8.810;2023-03-01T06:45:53;673.47;;;490.63;;
4428;SDS011;2227;47.810;8.810;2023-03-01T06:48:20;669.75;;;500.98;;
4428;SDS011;2227;47.810;8.810;2023-03-01T06:50:47;666.40;;;501.15;;
4428;SDS011;2227;47.810;8.810;2023-03-01T06:53:14;664.60;;;506.67;;
4428;SDS011;2227;47.810;8.810;2023-03-01T06:55:41;662.87;;;505.57;;
4428;SDS011;2227;47.810;8.810;2023-03-01T06:58:08;664.58;;;506.75;;
4428;SDS011;2227;47.810;8.810;2023-03-01T07:00:35;668.25;;;509.35;;
4428;SDS011;2227;47.810;8.810;2023-03-01T07:03:02;662.20;;;508.25;;
4428;SDS011;2227;47.810;8.810;2023-03-01T07:05:29;666.60;;;517.53;;
4428;SDS011;2227;47.810;8.810;2023-03-01T07:07:56;667.03;;;522.70;;
4428;SDS011;2227;47.810;8.810;2023-03-01T07:10:23;663.58;;;506.25;;
4428;SDS011;2227;47.810;8.810;2023-03-01T07:12:50;659.72;;;507.60;;
4428;SDS011;2227;47.810;8.810;2023-03-01T07:15:20;664.92;;;511.98;;
4428;SDS011;2227;47.810;8.810;2023-03-01T07:17:46;666.67;;;502.48;;
4428;SDS011;2227;47.810;8.810;2023-03-01T07:20:16;667.17;;;505.85;;
4428;SDS011;2227;47.810;8.810;2023-03-01T07:22:44;661.95;;;505.38;;
4428;SDS011;2227;47.810;8.810;2023-03-01T07:25:10;666.92;;;505.45;;
4428;SDS011;2227;47.810;8.810;2023-03-01T07:27:37;671.65;;;500.27;;
4428;SDS011;2227;47.810;8.810;2023-03-01T07:30:04;670.70;;;489.73;;
4428;SDS011;2227;47.810;8.810;2023-03-01T07:32:31;669.92;;;496.48;;
4428;SDS011;2227;47.810;8.810;2023-03-01T07:34:58;673.35;;;492.15;;
4428;SDS011;2227;47.810;8.810;2023-03-01T07:37:25;671.13;;;487.13;;
4428;SDS011;2227;47.810;8.810;2023-03-01T07:39:51;674.17;;;491.40;;
4428;SDS011;2227;47.810;8.810;2023-03-01T07:42:18;671.92;;;489.80;;
4428;SDS011;2227;47.810;8.810;2023-03-01T07:44:44;672.85;;;496.50;;
4428;SDS011;2227;47.810;8.810;2023-03-01T07:47:11;671.50;;;508.08;;
4428;SDS011;2227;47.810;8.810;2023-03-01T07:49:38;667.70;;;506.92;;
4428;SDS011;2227;47.810;8.810;2023-03-01T07:52:04;663.92;;;506.23;;
4428;SDS011;2227;47.810;8.810;2023-03-01T07:54:31;667.60;;;515.15;;
4428;SDS011;2227;47.810;8.810;2023-03-01T07:56:58;666.45;;;506.42;;
4428;SDS011;2227;47.810;8.810;2023-03-01T07:59:24;664.93;;;499.03;;
4428;SDS011;2227;47.810;8.810;2023-03-01T08:01:55;665.27;;;507.83;;
4428;SDS011;2227;47.810;8.810;2023-03-01T08:04:23;665.90;;;512.45;;
4428;SDS011;2227;47.810;8.810;2023-03-01T08:06:53;659.35;;;510.30;;
4428;SDS011;2227;47.810;8.810;2023-03-01T08:09:20;660.53;;;509.20;;
4428;SDS011;2227;47.810;8.810;2023-03-01T08:11:47;654.60;;;500.85;;
4428;SDS011;2227;47.810;8.810;2023-03-01T08:14:14;658.78;;;503.20;;
4428;SDS011;2227;47.810;8.810;2023-03-01T08:16:41;656.40;;;504.83;;
4428;SDS011;2227;47.810;8.810;2023-03-01T08:19:09;660.85;;;503.98;;
4428;SDS011;2227;47.810;8.810;2023-03-01T08:21:37;655.65;;;499.48;;
4428;SDS011;2227;47.810;8.810;2023-03-01T08:24:04;653.03;;;504.27;;
4428;SDS011;2227;47.810;8.810;2023-03-01T08:26:33;654.83;;;502.73;;
4428;SDS011;2227;47.810;8.810;2023-03-01T08:29:00;651.35;;;508.20;;
4428;SDS011;2227;47.810;8.810;2023-03-01T08:31:28;652.33;;;507.73;;
4428;SDS011;2227;47.810;8.810;2023-03-01T08:34:02;651.95;;;503.65;;
4428;SDS011;2227;47.810;8.810;2023-03-01T08:36:32;653.20;;;507.75;;
4428;SDS011;2227;47.810;8.810;2023-03-01T08:39:04;660.17;;;515.75;;
4428;SDS011;2227;47.810;8.810;2023-03-01T08:41:31;655.67;;;506.87;;
4428;SDS011;2227;47.810;8.810;2023-03-01T08:43:58;654.13;;;517.20;;
4428;SDS011;2227;47.810;8.810;2023-03-01T08:46:26;652.80;;;507.63;;
4428;SDS011;2227;47.810;8.810;2023-03-01T08:49:00;655.15;;;516.92;;
4428;SDS011;2227;47.810;8.810;2023-03-01T08:51:38;652.50;;;509.23;;
4428;SDS011;2227;47.810;8.810;2023-03-01T08:54:06;650.97;;;513.83;;
4428;SDS011;2227;47.810;8.810;2023-03-01T08:56:37;650.63;;;525.80;;
4428;SDS011;2227;47.810;8.810;2023-03-01T09:01:30;656.42;;;518.78;;
4428;SDS011;2227;47.810;8.810;2023-03-01T09:03:57;658.67;;;523.15;;
4428;SDS011;2227;47.810;8.810;2023-03-01T09:06:24;657.60;;;526.85;;
4428;SDS011;2227;47.810;8.810;2023-03-01T09:08:51;655.70;;;518.37;;
4428;SDS011;2227;47.810;8.810;2023-03-01T09:11:19;652.95;;;513.50;;
4428;SDS011;2227;47.810;8.810;2023-03-01T09:13:47;654.50;;;514.28;;
4428;SDS011;2227;47.810;8.810;2023-03-01T09:16:15;648.92;;;509.85;;
4428;SDS011;2227;47.810;8.810;2023-03-01T09:18:43;653.47;;;519.13;;
4428;SDS011;2227;47.810;8.810;2023-03-01T09:21:12;651.47;;;515.63;;
4428;SDS011;2227;47.810;8.810;2023-03-01T09:23:42;652.00;;;514.97;;
4428;SDS011;2227;47.810;8.810;2023-03-01T09:26:11;652.63;;;519.60;;
4428;SDS011;2227;47.810;8.810;2023-03-01T09:28:40;653.53;;;523.47;;
4428;SDS011;2227;47.810;8.810;2023-03-01T09:31:07;658.67;;;523.50;;
4428;SDS011;2227;47.810;8.810;2023-03-01T09:33:34;658.03;;;522.88;;
4428;SDS011;2227;47.810;8.810;2023-03-01T09:36:02;652.73;;;508.50;;
4428;SDS011;2227;47.810;8.810;2023-03-01T09:38:31;656.20;;;526.72;;
4428;SDS011;2227;47.810;8.810;2023-03-01T09:40:58;650.78;;;525.50;;
4428;SDS011;2227;47.810;8.810;2023-03-01T09:43:47;649.10;;;522.45;;
4428;SDS011;2227;47.810;8.810;2023-03-01T09:46:22;657.03;;;520.35;;
4428;SDS011;2227;47.810;8.810;2023-03-01T09:48:57;657.22;;;530.72;;
4428;SDS011;2227;47.810;8.810;2023-03-01T09:51:52;654.35;;;529.47;;
4428;SDS011;2227;47.810;8.810;2023-03-01T09:54:22;650.65;;;527.35;;
4428;SDS011;2227;47.810;8.810;2023-03-01T10:05:15;654.05;;;513.97;;
4428;SDS011;2227;47.810;8.810;2023-03-01T10:10:33;657.70;;;513.30;;
4428;SDS011;2227;47.810;8.810;2023-03-01T10:13:07;662.05;;;513.20;;
4428;SDS011;2227;47.810;8.810;2023-03-01T10:15:39;665.53;;;521.00;;
4428;SDS011;2227;47.810;8.810;2023-03-01T10:18:17;657.85;;;517.60;;
4428;SDS011;2227;47.810;8.810;2023-03-01T10:20:59;663.75;;;522.50;;
4428;SDS011;2227;47.810;8.810;2023-03-01T10:23:28;662.22;;;529.80;;
4428;SDS011;2227;47.810;8.810;2023-03-01T10:29:08;668.80;;;532.22;;
4428;SDS011;2227;47.810;8.810;2023-03-01T10:31:38;665.67;;;531.67;;
4428;SDS011;2227;47.810;8.810;2023-03-01T10:34:18;666.03;;;532.15;;
4428;SDS011;2227;47.810;8.810;2023-03-01T10:36:48;665.13;;;530.50;;
4428;SDS011;2227;47.810;8.810;2023-03-01T10:39:18;664.22;;;529.85;;
4428;SDS011;2227;47.810;8.810;2023-03-01T10:44:40;659.63;;;523.05;;
4428;SDS011;2227;47.810;8.810;2023-03-01T10:47:12;653.17;;;532.95;;
4428;SDS011;2227;47.810;8.810;2023-03-01T10:49:39;656.70;;;530.80;;
4428;SDS011;2227;47.810;8.810;2023-03-01T10:52:30;655.93;;;524.87;;
4428;SDS011;2227;47.810;8.810;2023-03-01T10:55:01;659.92;;;534.83;;
4428;SDS011;2227;47.810;8.810;2023-03-01T10:57:46;663.45;;;529.42;;
4428;SDS011;2227;47.810;8.810;2023-03-01T11:00:15;664.80;;;538.75;;
4428;SDS011;2227;47.810;8.810;2023-03-01T11:02:47;665.50;;;537.77;;
4428;SDS011;2227;47.810;8.810;2023-03-01T11:05:17;667.13;;;543.65;;
4428;SDS011;2227;47.810;8.810;2023-03-01T11:10:23;673.17;;;546.55;;
4428;SDS011;2227;47.810;8.810;2023-03-01T11:12:51;672.92;;;537.85;;
4428;SDS011;2227;47.810;8.810;2023-03-01T11:15:26;671.25;;;539.83;;
4428;SDS011;2227;47.810;8.810;2023-03-01T11:17:54;678.47;;;555.67;;
4428;SDS011;2227;47.810;8.810;2023-03-01T11:20:38;679.72;;;570.97;;
4428;SDS011;2227;47.810;8.810;2023-03-01T11:23:08;676.00;;;568.27;;
4428;SDS011;2227;47.810;8.810;2023-03-01T11:25:47;680.30;;;570.38;;
4428;SDS011;2227;47.810;8.810;2023-03-01T11:28:19;674.00;;;556.45;;
4428;SDS011;2227;47.810;8.810;2023-03-01T11:33:44;671.95;;;557.97;;
4428;SDS011;2227;47.810;8.810;2023-03-01T11:42:18;683.60;;;551.53;;
4428;SDS011;2227;47.810;8.810;2023-03-01T11:44:46;679.72;;;553.70;;
4428;SDS011;2227;47.810;8.810;2023-03-01T11:56:00;686.65;;;538.50;;
4428;SDS011;2227;47.810;8.810;2023-03-01T12:01:48;701.30;;;551.30;;
4428;SDS011;2227;47.810;8.810;2023-03-01T12:04:20;671.28;;;535.13;;
4428;SDS011;2227;47.810;8.810;2023-03-01T12:07:14;680.30;;;536.80;;
4428;SDS011;2227;47.810;8.810;2023-03-01T12:13:08;673.17;;;534.73;;
4428;SDS011;2227;47.810;8.810;2023-03-01T12:18:57;675.83;;;541.47;;
4428;SDS011;2227;47.810;8.810;2023-03-01T12:24:28;675.88;;;544.53;;
4428;SDS011;2227;47.810;8.810;2023-03-01T12:27:33;675.92;;;543.20;;
4428;SDS011;2227;47.810;8.810;2023-03-01T12:30:35;677.65;;;555.85;;
4428;SDS011;2227;47.810;8.810;2023-03-01T12:33:34;682.60;;;543.95;;
4428;SDS011;2227;47.810;8.810;2023-03-01T12:37:13;684.90;;;543.07;;
4428;SDS011;2227;47.810;8.810;2023-03-01T12:42:53;680.90;;;542.85;;
4428;SDS011;2227;47.810;8.810;2023-03-01T12:51:08;680.83;;;559.70;;
4428;SDS011;2227;47.810;8.810;2023-03-01T12:53:49;684.10;;;573.58;;
4428;SDS011;2227;47.810;8.810;2023-03-01T12:56:22;691.90;;;592.90;;
4428;SDS011;2227;47.810;8.810;2023-03-01T13:09:27;693.00;;;590.30;;
4428;SDS011;2227;47.810;8.810;2023-03-01T13:11:57;684.58;;;590.33;;
4428;SDS011;2227;47.810;8.810;2023-03-01T13:16:53;695.78;;;594.47;;
4428;SDS011;2227;47.810;8.810;2023-03-01T13:19:21;691.47;;;599.45;;
4428;SDS011;2227;47.810;8.810;2023-03-01T13:21:51;691.78;;;586.92;;
4428;SDS011;2227;47.810;8.810;2023-03-01T13:24:41;691.05;;;597.38;;
4428;SDS011;2227;47.810;8.810;2023-03-01T13:29:49;690.83;;;586.97;;
4428;SDS011;2227;47.810;8.810;2023-03-01T13:37:42;691.05;;;589.05;;
4428;SDS011;2227;47.810;8.810;2023-03-01T13:42:47;689.30;;;592.42;;
4428;SDS011;2227;47.810;8.810;2023-03-01T13:48:17;684.37;;;583.07;;
4428;SDS011;2227;47.810;8.810;2023-03-01T13:50:53;680.03;;;581.70;;
4428;SDS011;2227;47.810;8.810;2023-03-01T13:53:25;682.65;;;587.25;;
4428;SDS011;2227;47.810;8.810;2023-03-01T13:55:56;684.38;;;588.97;;
4428;SDS011;2227;47.810;8.810;2023-03-01T13:58:29;681.05;;;573.75;;
4428;SDS011;2227;47.810;8.810;2023-03-01T14:01:05;682.00;;;583.80;;
4428;SDS011;2227;47.810;8.810;2023-03-01T14:03:40;681.95;;;584.15;;
4428;SDS011;2227;47.810;8.810;2023-03-01T14:06:09;683.45;;;592.10;;
4428;SDS011;2227;47.810;8.810;2023-03-01T14:08:43;681.15;;;593.88;;
4428;SDS011;2227;47.810;8.810;2023-03-01T14:13:54;683.47;;;589.38;;
4428;SDS011;2227;47.810;8.810;2023-03-01T14:16:46;676.27;;;571.17;;
4428;SDS011;2227;47.810;8.810;2023-03-01T14:19:25;676.65;;;570.70;;
4428;SDS011;2227;47.810;8.810;2023-03-01T14:21:59;673.80;;;567.03;;
4428;SDS011;2227;47.810;8.810;2023-03-01T14:24:49;682.10;;;586.42;;
4428;SDS011;2227;47.810;8.810;2023-03-01T14:27:18;679.42;;;583.72;;
4428;SDS011;2227;47.810;8.810;2023-03-01T14:29:58;679.78;;;593.95;;
4428;SDS011;2227;47.810;8.810;2023-03-01T14:32:28;684.10;;;595.83;;
4428;SDS011;2227;47.810;8.810;2023-03-01T14:34:57;680.08;;;590.75;;
4428;SDS011;2227;47.810;8.810;2023-03-01T14:37:32;677.83;;;590.80;;
4428;SDS011;2227;47.810;8.810;2023-03-01T14:40:02;678.05;;;586.55;;
4428;SDS011;2227;47.810;8.810;2023-03-01T14:42:36;678.28;;;595.15;;
4428;SDS011;2227;47.810;8.810;2023-03-01T14:45:03;670.35;;;568.20;;
4428;SDS011;2227;47.810;8.810;2023-03-01T14:47:34;669.47;;;578.20;;
4428;SDS011;2227;47.810;8.810;2023-03-01T14:50:04;674.50;;;573.53;;
4428;SDS011;2227;47.810;8.810;2023-03-01T14:52:40;680.58;;;586.47;;
4428;SDS011;2227;47.810;8.810;2023-03-01T14:55:20;674.05;;;583.50;;
4428;SDS011;2227;47.810;8.810;2023-03-01T14:57:51;672.35;;;589.90;;
4428;SDS011;2227;47.810;8.810;2023-03-01T15:00:20;674.33;;;591.70;;
4428;SDS011;2227;47.810;8.810;2023-03-01T15:02:52;677.47;;;586.63;;
4428;SDS011;2227;47.810;8.810;2023-03-01T15:05:25;676.87;;;600.10;;
4428;SDS011;2227;47.810;8.810;2023-03-01T15:07:59;684.67;;;607.78;;
4428;SDS011;2227;47.810;8.810;2023-03-01T15:10:29;680.97;;;603.40;;
4428;SDS011;2227;47.810;8.810;2023-03-01T15:13:14;680.30;;;604.90;;
4428;SDS011;2227;47.810;8.810;2023-03-01T15:15:48;681.10;;;605.80;;
4428;SDS011;2227;47.810;8.810;2023-03-01T15:18:21;690.88;;;615.10;;
4428;SDS011;2227;47.810;8.810;2023-03-01T15:20:52;699.38;;;623.90;;
4428;SDS011;2227;47.810;8.810;2023-03-01T15:23:21;758.20;;;634.45;;
4428;SDS011;2227;47.810;8.810;2023-03-01T15:25:53;749.05;;;634.53;;
4428;SDS011;2227;47.810;8.810;2023-03-01T15:28:28;706.88;;;631.88;;
4428;SDS011;2227;47.810;8.810;2023-03-01T15:33:48;725.35;;;650.33;;
4428;SDS011;2227;47.810;8.810;2023-03-01T15:36:32;731.08;;;655.47;;
4428;SDS011;2227;47.810;8.810;2023-03-01T15:38:59;728.53;;;653.10;;
4428;SDS011;2227;47.810;8.810;2023-03-01T15:41:29;730.35;;;654.65;;
4428;SDS011;2227;47.810;8.810;2023-03-01T15:43:58;732.60;;;657.63;;
4428;SDS011;2227;47.810;8.810;2023-03-01T15:46:30;744.03;;;668.70;;
4428;SDS011;2227;47.810;8.810;2023-03-01T15:49:01;734.63;;;660.22;;
4428;SDS011;2227;47.810;8.810;2023-03-01T15:51:32;742.30;;;668.25;;
4428;SDS011;2227;47.810;8.810;2023-03-01T15:54:02;752.43;;;677.97;;
4428;SDS011;2227;47.810;8.810;2023-03-01T15:56:43;759.60;;;684.08;;
4428;SDS011;2227;47.810;8.810;2023-03-01T15:59:11;751.07;;;675.67;;
4428;SDS011;2227;47.810;8.810;2023-03-01T16:01:40;744.67;;;668.73;;
4428;SDS011;2227;47.810;8.810;2023-03-01T16:04:11;759.65;;;683.85;;
4428;SDS011;2227;47.810;8.810;2023-03-01T16:06:42;745.33;;;670.22;;
4428;SDS011;2227;47.810;8.810;2023-03-01T16:09:08;744.28;;;669.08;;
4428;SDS011;2227;47.810;8.810;2023-03-01T16:11:35;742.30;;;666.50;;
4428;SDS011;2227;47.810;8.810;2023-03-01T16:14:03;737.65;;;662.55;;
4428;SDS011;2227;47.810;8.810;2023-03-01T16:16:29;744.35;;;668.40;;
4428;SDS011;2227;47.810;8.810;2023-03-01T16:18:57;731.05;;;654.90;;
4428;SDS011;2227;47.810;8.810;2023-03-01T16:21:24;720.67;;;644.67;;
4428;SDS011;2227;47.810;8.810;2023-03-01T16:23:51;726.47;;;650.78;;
4428;SDS011;2227;47.810;8.810;2023-03-01T16:26:18;707.70;;;632.00;;
4428;SDS011;2227;47.810;8.810;2023-03-01T16:28:46;707.88;;;633.17;;
4428;SDS011;2227;47.810;8.810;2023-03-01T16:31:16;697.37;;;621.77;;
4428;SDS011;2227;47.810;8.810;2023-03-01T16:33:45;686.75;;;611.88;;
4428;SDS011;2227;47.810;8.810;2023-03-01T16:36:16;681.00;;;605.80;;
4428;SDS011;2227;47.810;8.810;2023-03-01T16:38:44;682.00;;;606.40;;
4428;SDS011;2227;47.810;8.810;2023-03-01T16:41:13;678.50;;;598.30;;
4428;SDS011;2227;47.810;8.810;2023-03-01T16:43:42;679.63;;;598.08;;
4428;SDS011;2227;47.810;8.810;2023-03-01T16:46:10;673.42;;;598.15;;
4428;SDS011;2227;47.810;8.810;2023-03-01T16:48:41;675.33;;;595.33;;
4428;SDS011;2227;47.810;8.810;2023-03-01T16:51:08;685.60;;;610.22;;
4428;SDS011;2227;47.810;8.810;2023-03-01T16:53:35;670.55;;;596.33;;
4428;SDS011;2227;47.810;8.810;2023-03-01T16:56:03;675.20;;;598.95;;
4428;SDS011;2227;47.810;8.810;2023-03-01T16:58:31;671.20;;;584.63;;
4428;SDS011;2227;47.810;8.810;2023-03-01T17:01:03;667.55;;;591.42;;
4428;SDS011;2227;47.810;8.810;2023-03-01T17:03:32;668.83;;;585.83;;
4428;SDS011;2227;47.810;8.810;2023-03-01T17:06:02;676.38;;;578.63;;
4428;SDS011;2227;47.810;8.810;2023-03-01T17:08:31;667.40;;;588.45;;
4428;SDS011;2227;47.810;8.810;2023-03-01T17:11:08;670.92;;;583.92;;
4428;SDS011;2227;47.810;8.810;2023-03-01T17:13:37;673.10;;;581.17;;
4428;SDS011;2227;47.810;8.810;2023-03-01T17:16:08;670.63;;;583.33;;
4428;SDS011;2227;47.810;8.810;2023-03-01T17:18:36;672.92;;;591.95;;
4428;SDS011;2227;47.810;8.810;2023-03-01T17:21:04;670.83;;;583.15;;
4428;SDS011;2227;47.810;8.810;2023-03-01T17:23:32;666.28;;;587.03;;
4428;SDS011;2227;47.810;8.810;2023-03-01T17:26:00;669.27;;;586.00;;
4428;SDS011;2227;47.810;8.810;2023-03-01T17:28:28;669.95;;;595.85;;
4428;SDS011;2227;47.810;8.810;2023-03-01T17:30:58;663.95;;;590.28;;
4428;SDS011;2227;47.810;8.810;2023-03-01T17:33:25;668.15;;;591.70;;
4428;SDS011;2227;47.810;8.810;2023-03-01T17:35:52;661.47;;;588.10;;
4428;SDS011;2227;47.810;8.810;2023-03-01T17:38:19;664.97;;;591.15;;
4428;SDS011;2227;47.810;8.810;2023-03-01T17:40:46;667.90;;;593.72;;
4428;SDS011;2227;47.810;8.810;2023-03-01T17:43:13;680.85;;;597.83;;
4428;SDS011;2227;47.810;8.810;2023-03-01T17:45:41;683.37;;;596.07;;
4428;SDS011;2227;47.810;8.810;2023-03-01T17:48:13;685.58;;;599.75;;
4428;SDS011;2227;47.810;8.810;2023-03-01T17:50:40;676.63;;;591.15;;
4428;SDS011;2227;47.810;8.810;2023-03-01T17:53:07;672.45;;;597.85;;
4428;SDS011;2227;47.810;8.810;2023-03-01T17:55:35;673.90;;;594.13;;
4428;SDS011;2227;47.810;8.810;2023-03-01T17:58:03;683.75;;;595.80;;
4428;SDS011;2227;47.810;8.810;2023-03-01T18:00:31;692.38;;;599.03;;
4428;SDS011;2227;47.810;8.810;2023-03-01T18:02:59;678.20;;;596.17;;
4428;SDS011;2227;47.810;8.810;2023-03-01T18:05:26;670.92;;;596.53;;
4428;SDS011;2227;47.810;8.810;2023-03-01T18:07:53;674.78;;;600.17;;
4428;SDS011;2227;47.810;8.810;2023-03-01T18:10:19;669.38;;;594.65;;
4428;SDS011;2227;47.810;8.810;2023-03-01T18:12:46;673.97;;;593.55;;
4428;SDS011;2227;47.810;8.810;2023-03-01T18:15:13;670.97;;;592.38;;
4428;SDS011;2227;47.810;8.810;2023-03-01T18:17:40;670.67;;;590.10;;
4428;SDS011;2227;47.810;8.810;2023-03-01T18:20:06;667.20;;;590.58;;
4428;SDS011;2227;47.810;8.810;2023-03-01T18:22:34;670.42;;;593.22;;
4428;SDS011;2227;47.810;8.810;2023-03-01T18:25:01;672.15;;;586.75;;
4428;SDS011;2227;47.810;8.810;2023-03-01T18:27:27;666.10;;;585.58;;
4428;SDS011;2227;47.810;8.810;2023-03-01T18:29:54;666.70;;;586.28;;
4428;SDS011;2227;47.810;8.810;2023-03-01T18:32:21;672.70;;;585.63;;
4428;SDS011;2227;47.810;8.810;2023-03-01T18:34:48;676.58;;;588.90;;
4428;SDS011;2227;47.810;8.810;2023-03-01T18:37:15;674.95;;;591.13;;
4428;SDS011;2227;47.810;8.810;2023-03-01T18:39:43;663.03;;;583.30;;
4428;SDS011;2227;47.810;8.810;2023-03-01T18:42:09;665.90;;;587.20;;
4428;SDS011;2227;47.810;8.810;2023-03-01T18:44:36;664.35;;;578.70;;
4428;SDS011;2227;47.810;8.810;2023-03-01T18:47:03;663.28;;;580.15;;
4428;SDS011;2227;47.810;8.810;2023-03-01T18:49:30;663.15;;;582.25;;
4428;SDS011;2227;47.810;8.810;2023-03-01T18:51:57;663.03;;;584.60;;
4428;SDS011;2227;47.810;8.810;2023-03-01T18:54:24;667.95;;;585.55;;
4428;SDS011;2227;47.810;8.810;2023-03-01T18:56:50;668.60;;;587.07;;
4428;SDS011;2227;47.810;8.810;2023-03-01T18:59:17;671.22;;;585.45;;
4428;SDS011;2227;47.810;8.810;2023-03-01T19:01:43;673.60;;;590.05;;
4428;SDS011;2227;47.810;8.810;2023-03-01T19:04:10;672.80;;;591.17;;
4428;SDS011;2227;47.810;8.810;2023-03-01T19:06:37;669.22;;;588.75;;
4428;SDS011;2227;47.810;8.810;2023-03-01T19:09:04;676.10;;;598.03;;
4428;SDS011;2227;47.810;8.810;2023-03-01T19:11:35;672.22;;;596.63;;
4428;SDS011;2227;47.810;8.810;2023-03-01T19:14:02;675.80;;;599.20;;
4428;SDS011;2227;47.810;8.810;2023-03-01T19:16:30;674.33;;;598.55;;
4428;SDS011;2227;47.810;8.810;2023-03-01T19:18:59;669.37;;;591.00;;
4428;SDS011;2227;47.810;8.810;2023-03-01T19:21:28;670.33;;;589.78;;
4428;SDS011;2227;47.810;8.810;2023-03-01T19:23:57;671.58;;;593.70;;
4428;SDS011;2227;47.810;8.810;2023-03-01T19:26:25;675.45;;;589.97;;
4428;SDS011;2227;47.810;8.810;2023-03-01T19:28:53;681.27;;;581.00;;
4428;SDS011;2227;47.810;8.810;2023-03-01T19:31:21;673.67;;;583.58;;
4428;SDS011;2227;47.810;8.810;2023-03-01T19:33:51;671.83;;;574.90;;
4428;SDS011;2227;47.810;8.810;2023-03-01T19:36:30;674.15;;;580.08;;
4428;SDS011;2227;47.810;8.810;2023-03-01T19:39:00;668.28;;;568.55;;
4428;SDS011;2227;47.810;8.810;2023-03-01T19:41:29;667.03;;;570.17;;
4428;SDS011;2227;47.810;8.810;2023-03-01T19:43:56;664.33;;;560.92;;
4428;SDS011;2227;47.810;8.810;2023-03-01T19:46:23;672.58;;;587.30;;
4428;SDS011;2227;47.810;8.810;2023-03-01T19:48:53;673.33;;;589.92;;
4428;SDS011;2227;47.810;8.810;2023-03-01T19:51:20;669.80;;;585.38;;
4428;SDS011;2227;47.810;8.810;2023-03-01T19:53:46;672.47;;;585.08;;
4428;SDS011;2227;47.810;8.810;2023-03-01T19:56:13;675.30;;;582.20;;
4428;SDS011;2227;47.810;8.810;2023-03-01T19:58:40;673.05;;;582.15;;
4428;SDS011;2227;47.810;8.810;2023-03-01T20:01:14;672.22;;;583.20;;
4428;SDS011;2227;47.810;8.810;2023-03-01T20:03:42;668.42;;;565.13;;
4428;SDS011;2227;47.810;8.810;2023-03-01T20:06:11;668.00;;;562.90;;
4428;SDS011;2227;47.810;8.810;2023-03-01T20:08:40;668.22;;;569.65;;
4428;SDS011;2227;47.810;8.810;2023-03-01T20:11:07;664.80;;;565.30;;
4428;SDS011;2227;47.810;8.810;2023-03-01T20:13:36;668.25;;;569.60;;
4428;SDS011;2227;47.810;8.810;2023-03-01T20:16:03;659.88;;;562.53;;
4428;SDS011;2227;47.810;8.810;2023-03-01T20:18:30;663.90;;;566.05;;
4428;SDS011;2227;47.810;8.810;2023-03-01T20:20:58;672.22;;;583.67;;
4428;SDS011;2227;47.810;8.810;2023-03-01T20:23:25;674.25;;;582.65;;
4428;SDS011;2227;47.810;8.810;2023-03-01T20:25:59;673.63;;;577.72;;
4428;SDS011;2227;47.810;8.810;2023-03-01T20:28:28;672.80;;;573.28;;
4428;SDS011;2227;47.810;8.810;2023-03-01T20:31:00;676.25;;;586.83;;
4428;SDS011;2227;47.810;8.810;2023-03-01T20:33:28;677.07;;;593.00;;
4428;SDS011;2227;47.810;8.810;2023-03-01T20:35:55;674.83;;;587.08;;
4428;SDS011;2227;47.810;8.810;2023-03-01T20:38:22;682.53;;;600.22;;
4428;SDS011;2227;47.810;8.810;2023-03-01T20:40:48;679.63;;;593.42;;
4428;SDS011;2227;47.810;8.810;2023-03-01T20:43:15;685.07;;;592.50;;
4428;SDS011;2227;47.810;8.810;2023-03-01T20:45:42;691.63;;;593.90;;
4428;SDS011;2227;47.810;8.810;2023-03-01T20:48:08;689.25;;;590.17;;
4428;SDS011;2227;47.810;8.810;2023-03-01T20:50:38;688.53;;;594.23;;
4428;SDS011;2227;47.810;8.810;2023-03-01T20:53:05;685.80;;;595.25;;
4428;SDS011;2227;47.810;8.810;2023-03-01T20:55:33;693.95;;;592.40;;
4428;SDS011;2227;47.810;8.810;2023-03-01T20:58:00;694.83;;;601.35;;